sensor_id;sensor_type;location;lat;lon;timestamp;pressure;altitude;pressure_sealevel;temperature;humidity
28927;BME280;16038;47.692;9.400;2024-02-26T00:01:57;94743.28;;;6.31;60.67
28927;BME280;16038;47.692;9.400;2024-02-26T00:04:23;94733.59;;;6.34;61.50
28927;BME280;16038;47.692;9.400;2024-02-26T00:06:48;94738.25;;;6.51;59.48
28927;BME280;16038;47.692;9.400;2024-02-26T00:09:16;94740.94;;;6.37;61.40
28927;BME280;16038;47.692;9.400;2024-02-26T00:11:41;94742.91;;;6.37;61.25
28927;BME280;16038;47.692;9.400;2024-02-26T00:14:07;94740.56;;;6.31;61.42
28927;BME280;16038;47.692;9.400;2024-02-26T00:16:32;94743.66;;;6.34;61.51
28927;BME280;16038;47.692;9.400;2024-02-26T00:18:58;94740.94;;;6.37;61.41
28927;BME280;16038;47.692;9.400;2024-02-26T00:21:23;94739.03;;;6.38;61.08
28927;BME280;16038;47.692;9.400;2024-02-26T00:23:49;94741.38;;;6.36;61.58
28927;BME280;16038;47.692;9.400;2024-02-26T00:26:16;94744.47;;;6.34;62.28
28927;BME280;16038;47.692;9.400;2024-02-26T00:28:42;94751.06;;;6.37;61.65
28927;BME280;16038;47.692;9.400;2024-02-26T00:31:08;94743.69;;;6.41;61.34
28927;BME280;16038;47.692;9.400;2024-02-26T00:33:33;94743.69;;;6.44;61.52
28927;BME280;16038;47.692;9.400;2024-02-26T00:35:59;94739.81;;;6.49;61.92
28927;BME280;16038;47.692;9.400;2024-02-26T00:38:24;94730.50;;;6.46;61.44
28927;BME280;16038;47.692;9.400;2024-02-26T00:40:49;94724.66;;;6.44;62.63
28927;BME280;16038;47.692;9.400;2024-02-26T00:43:15;94721.16;;;6.44;61.40
28927;BME280;16038;47.692;9.400;2024-02-26T00:45:40;94714.56;;;6.45;61.98
28927;BME280;16038;47.692;9.400;2024-02-26T00:48:06;94710.66;;;6.42;61.71
28927;BME280;16038;47.692;9.400;2024-02-26T00:50:33;94711.84;;;6.38;63.01
28927;BME280;16038;47.692;9.400;2024-02-26T00:52:59;94715.72;;;6.40;62.01
28927;BME280;16038;47.692;9.400;2024-02-26T00:55:24;94709.13;;;6.41;61.26
28927;BME280;16038;47.692;9.400;2024-02-26T00:57:49;94711.84;;;6.41;61.92
28927;BME280;16038;47.692;9.400;2024-02-26T01:00:15;94711.47;;;6.43;61.11
28927;BME280;16038;47.692;9.400;2024-02-26T01:02:41;94709.91;;;6.38;61.81
28927;BME280;16038;47.692;9.400;2024-02-26T01:05:12;94718.06;;;6.42;61.89
28927;BME280;16038;47.692;9.400;2024-02-26T01:07:38;94706.78;;;6.43;61.93
28927;BME280;16038;47.692;9.400;2024-02-26T01:10:05;94710.66;;;6.39;62.92
28927;BME280;16038;47.692;9.400;2024-02-26T01:12:32;94709.13;;;6.41;62.24
28927;BME280;16038;47.692;9.400;2024-02-26T01:14:58;94703.31;;;6.43;62.09
28927;BME280;16038;47.692;9.400;2024-02-26T01:17:23;94698.63;;;6.40;63.26
28927;BME280;16038;47.692;9.400;2024-02-26T01:19:48;94697.44;;;6.44;62.27
28927;BME280;16038;47.692;9.400;2024-02-26T01:22:14;94699.41;;;6.47;62.79
28927;BME280;16038;47.692;9.400;2024-02-26T01:24:39;94699.41;;;6.44;62.64
28927;BME280;16038;47.692;9.400;2024-02-26T01:27:04;94695.16;;;6.50;61.71
28927;BME280;16038;47.692;9.400;2024-02-26T01:29:31;94692.81;;;6.56;63.09
28927;BME280;16038;47.692;9.400;2024-02-26T01:31:56;94699.00;;;6.63;62.69
28927;BME280;16038;47.692;9.400;2024-02-26T01:34:22;94699.00;;;6.60;63.87
28927;BME280;16038;47.692;9.400;2024-02-26T01:36:47;94705.22;;;6.53;63.17
28927;BME280;16038;47.692;9.400;2024-02-26T01:39:13;94706.00;;;6.61;62.39
28927;BME280;16038;47.692;9.400;2024-02-26T01:41:39;94701.72;;;6.60;62.28
28927;BME280;16038;47.692;9.400;2024-02-26T01:44:05;94706.03;;;6.54;63.30
28927;BME280;16038;47.692;9.400;2024-02-26T01:46:31;94706.03;;;6.50;63.31
28927;BME280;16038;47.692;9.400;2024-02-26T01:48:59;94702.88;;;6.48;63.57
28927;BME280;16038;47.692;9.400;2024-02-26T01:51:26;94700.97;;;6.63;62.03
28927;BME280;16038;47.692;9.400;2024-02-26T01:53:51;94697.81;;;6.68;61.74
28927;BME280;16038;47.692;9.400;2024-02-26T01:56:18;94698.25;;;6.63;62.63
28927;BME280;16038;47.692;9.400;2024-02-26T01:58:45;94699.41;;;6.58;63.14
28927;BME280;16038;47.692;9.400;2024-02-26T02:01:12;94700.16;;;6.59;63.97
28927;BME280;16038;47.692;9.400;2024-02-26T02:03:38;94699.00;;;6.63;62.80
28927;BME280;16038;47.692;9.400;2024-02-26T02:06:04;94697.44;;;6.69;63.46
28927;BME280;16038;47.692;9.400;2024-02-26T02:08:30;94700.56;;;6.68;62.79
28927;BME280;16038;47.692;9.400;2024-02-26T02:10:56;94691.22;;;6.76;62.11
28927;BME280;16038;47.692;9.400;2024-02-26T02:13:21;94694.31;;;6.78;62.70
28927;BME280;16038;47.692;9.400;2024-02-26T02:15:47;94703.66;;;6.81;62.00
28927;BME280;16038;47.692;9.400;2024-02-26T02:18:12;94700.16;;;6.77;62.33
28927;BME280;16038;47.692;9.400;2024-02-26T02:20:38;94710.66;;;6.78;63.09
28927;BME280;16038;47.692;9.400;2024-02-26T02:23:03;94712.22;;;6.83;63.14
28927;BME280;16038;47.692;9.400;2024-02-26T02:25:29;94712.59;;;6.81;63.41
28927;BME280;16038;47.692;9.400;2024-02-26T02:27:55;94714.94;;;6.83;64.36
28927;BME280;16038;47.692;9.400;2024-02-26T02:30:21;94720.00;;;6.84;69.15
28927;BME280;16038;47.692;9.400;2024-02-26T02:32:49;94721.53;;;6.82;72.46
28927;BME280;16038;47.692;9.400;2024-02-26T02:35:14;94721.53;;;6.78;74.13
28927;BME280;16038;47.692;9.400;2024-02-26T02:37:40;94728.56;;;6.58;75.89
28927;BME280;16038;47.692;9.400;2024-02-26T02:40:06;94730.09;;;6.55;75.84
28927;BME280;16038;47.692;9.400;2024-02-26T02:42:31;94722.31;;;6.61;78.29
28927;BME280;16038;47.692;9.400;2024-02-26T02:44:57;94723.09;;;6.68;75.52
28927;BME280;16038;47.692;9.400;2024-02-26T02:47:22;94725.03;;;6.64;74.79
28927;BME280;16038;47.692;9.400;2024-02-26T02:49:47;94726.59;;;6.58;76.00
28927;BME280;16038;47.692;9.400;2024-02-26T02:52:13;94726.59;;;6.51;76.33
28927;BME280;16038;47.692;9.400;2024-02-26T02:54:38;94726.97;;;6.53;76.81
28927;BME280;16038;47.692;9.400;2024-02-26T02:57:07;94725.44;;;6.63;74.37
28927;BME280;16038;47.692;9.400;2024-02-26T02:59:32;94740.19;;;6.58;75.24
28927;BME280;16038;47.692;9.400;2024-02-26T03:01:57;94739.44;;;6.47;77.29
28927;BME280;16038;47.692;9.400;2024-02-26T03:04:23;94742.53;;;6.45;78.47
28927;BME280;16038;47.692;9.400;2024-02-26T03:06:48;94751.84;;;6.41;80.56
28927;BME280;16038;47.692;9.400;2024-02-26T03:09:14;94746.81;;;6.36;82.03
28927;BME280;16038;47.692;9.400;2024-02-26T03:11:39;94754.16;;;6.31;83.70
28927;BME280;16038;47.692;9.400;2024-02-26T03:14:05;94751.78;;;6.16;85.62
28927;BME280;16038;47.692;9.400;2024-02-26T03:16:31;94751.78;;;6.08;88.20
28927;BME280;16038;47.692;9.400;2024-02-26T03:18:57;94748.31;;;6.19;90.80
28927;BME280;16038;47.692;9.400;2024-02-26T03:21:22;94736.69;;;6.36;92.65
28927;BME280;16038;47.692;9.400;2024-02-26T03:23:47;94723.50;;;6.38;95.12
28927;BME280;16038;47.692;9.400;2024-02-26T03:26:13;94730.47;;;6.21;98.63
28927;BME280;16038;47.692;9.400;2024-02-26T03:28:40;94732.75;;;6.05;100.00
28927;BME280;16038;47.692;9.400;2024-02-26T03:31:05;94710.25;;;6.04;100.00
28927;BME280;16038;47.692;9.400;2024-02-26T03:33:31;94705.59;;;6.16;100.00
28927;BME280;16038;47.692;9.400;2024-02-26T03:35:56;94698.22;;;6.12;100.00
28927;BME280;16038;47.692;9.400;2024-02-26T03:38:22;94702.47;;;6.03;100.00
28927;BME280;16038;47.692;9.400;2024-02-26T03:40:47;94709.81;;;5.95;100.00
28927;BME280;16038;47.692;9.400;2024-02-26T03:43:13;94702.72;;;5.65;100.00
28927;BME280;16038;47.692;9.400;2024-02-26T03:45:38;94701.50;;;5.41;100.00
28927;BME280;16038;47.692;9.400;2024-02-26T03:48:04;94694.47;;;5.33;100.00
28927;BME280;16038;47.692;9.400;2024-02-26T03:50:29;94693.31;;;5.30;100.00
28927;BME280;16038;47.692;9.400;2024-02-26T03:52:55;94703.44;;;5.44;100.00
28927;BME280;16038;47.692;9.400;2024-02-26T03:55:22;94696.47;;;5.50;100.00
28927;BME280;16038;47.692;9.400;2024-02-26T03:57:51;94677.00;;;5.23;100.00
28927;BME280;16038;47.692;9.400;2024-02-26T04:00:17;94678.06;;;5.04;100.00
28927;BME280;16038;47.692;9.400;2024-02-26T04:02:43;94672.31;;;5.20;100.00
28927;BME280;16038;47.692;9.400;2024-02-26T04:05:12;94671.13;;;5.14;100.00
28927;BME280;16038;47.692;9.400;2024-02-26T04:07:38;94656.78;;;5.13;100.00
28927;BME280;16038;47.692;9.400;2024-02-26T04:10:09;94639.31;;;5.11;100.00
28927;BME280;16038;47.692;9.400;2024-02-26T04:12:35;94637.97;;;4.69;100.00
28927;BME280;16038;47.692;9.400;2024-02-26T04:15:04;94623.66;;;4.72;100.00
28927;BME280;16038;47.692;9.400;2024-02-26T04:17:30;94621.38;;;4.77;100.00
28927;BME280;16038;47.692;9.400;2024-02-26T04:19:55;94614.44;;;4.91;100.00
28927;BME280;16038;47.692;9.400;2024-02-26T04:22:21;94599.00;;;5.09;100.00
28927;BME280;16038;47.692;9.400;2024-02-26T04:24:46;94613.06;;;5.44;100.00
28927;BME280;16038;47.692;9.400;2024-02-26T04:27:12;94620.84;;;5.49;99.99
28927;BME280;16038;47.692;9.400;2024-02-26T04:29:37;94621.66;;;5.57;96.83
28927;BME280;16038;47.692;9.400;2024-02-26T04:32:02;94622.44;;;5.68;93.23
28927;BME280;16038;47.692;9.400;2024-02-26T04:34:29;94623.63;;;5.88;88.69
28927;BME280;16038;47.692;9.400;2024-02-26T04:36:54;94643.47;;;5.96;87.42
28927;BME280;16038;47.692;9.400;2024-02-26T04:39:20;94639.56;;;5.97;85.64
28927;BME280;16038;47.692;9.400;2024-02-26T04:41:45;94652.78;;;6.02;86.34
28927;BME280;16038;47.692;9.400;2024-02-26T04:44:11;94671.81;;;6.24;84.81
28927;BME280;16038;47.692;9.400;2024-02-26T04:46:36;94671.03;;;6.02;89.87
28927;BME280;16038;47.692;9.400;2024-02-26T04:49:02;94684.16;;;5.78;95.89
28927;BME280;16038;47.692;9.400;2024-02-26T04:51:27;94689.56;;;5.67;96.86
28927;BME280;16038;47.692;9.400;2024-02-26T04:53:53;94693.03;;;5.64;98.28
28927;BME280;16038;47.692;9.400;2024-02-26T04:56:22;94702.72;;;5.58;100.00
28927;BME280;16038;47.692;9.400;2024-02-26T04:58:48;94714.41;;;5.66;100.00
28927;BME280;16038;47.692;9.400;2024-02-26T05:01:14;94710.84;;;5.58;100.00
28927;BME280;16038;47.692;9.400;2024-02-26T05:03:41;94723.63;;;5.47;100.00
28927;BME280;16038;47.692;9.400;2024-02-26T05:06:06;94727.53;;;5.49;100.00
28927;BME280;16038;47.692;9.400;2024-02-26T05:08:32;94733.00;;;5.57;100.00
28927;BME280;16038;47.692;9.400;2024-02-26T05:10:59;94738.97;;;5.98;100.00
28927;BME280;16038;47.692;9.400;2024-02-26T05:13:25;94746.75;;;6.07;95.17
28927;BME280;16038;47.692;9.400;2024-02-26T05:15:50;94746.25;;;5.83;100.00
28927;BME280;16038;47.692;9.400;2024-02-26T05:18:17;94760.97;;;5.71;100.00
28927;BME280;16038;47.692;9.400;2024-02-26T05:20:43;94760.56;;;5.66;100.00
28927;BME280;16038;47.692;9.400;2024-02-26T05:23:09;94755.53;;;5.68;100.00
28927;BME280;16038;47.692;9.400;2024-02-26T05:25:34;94757.47;;;5.67;100.00
28927;BME280;16038;47.692;9.400;2024-02-26T05:28:00;94749.38;;;5.85;100.00
28927;BME280;16038;47.692;9.400;2024-02-26T05:30:25;94742.00;;;5.82;100.00
28927;BME280;16038;47.692;9.400;2024-02-26T05:32:53;94752.44;;;5.73;100.00
28927;BME280;16038;47.692;9.400;2024-02-26T05:35:18;94757.81;;;5.59;100.00
28927;BME280;16038;47.692;9.400;2024-02-26T05:37:44;94759.75;;;5.58;100.00
28927;BME280;16038;47.692;9.400;2024-02-26T05:40:10;94753.09;;;5.45;100.00
28927;BME280;16038;47.692;9.400;2024-02-26T05:42:35;94751.50;;;5.36;100.00
28927;BME280;16038;47.692;9.400;2024-02-26T05:45:01;94754.94;;;5.23;100.00
28927;BME280;16038;47.692;9.400;2024-02-26T05:47:35;94752.19;;;5.19;100.00
28927;BME280;16038;47.692;9.400;2024-02-26T05:50:03;94759.94;;;5.17;100.00
28927;BME280;16038;47.692;9.400;2024-02-26T05:52:29;94766.53;;;5.20;100.00
28927;BME280;16038;47.692;9.400;2024-02-26T05:54:57;94769.19;;;5.09;100.00
28927;BME280;16038;47.692;9.400;2024-02-26T05:57:23;94775.28;;;4.95;100.00
28927;BME280;16038;47.692;9.400;2024-02-26T05:59:48;94772.09;;;4.82;100.00
28927;BME280;16038;47.692;9.400;2024-02-26T06:02:13;94781.84;;;4.90;100.00
28927;BME280;16038;47.692;9.400;2024-02-26T06:04:39;94781.81;;;4.87;100.00
28927;BME280;16038;47.692;9.400;2024-02-26T06:07:04;94786.78;;;4.74;100.00
28927;BME280;16038;47.692;9.400;2024-02-26T06:09:30;94790.75;;;4.91;100.00
28927;BME280;16038;47.692;9.400;2024-02-26T06:11:55;94784.25;;;4.99;100.00
28927;BME280;16038;47.692;9.400;2024-02-26T06:14:21;94789.69;;;5.03;100.00
28927;BME280;16038;47.692;9.400;2024-02-26T06:16:46;94784.28;;;5.06;100.00
28927;BME280;16038;47.692;9.400;2024-02-26T06:19:12;94795.19;;;5.13;100.00
28927;BME280;16038;47.692;9.400;2024-02-26T06:21:37;94802.16;;;5.14;100.00
28927;BME280;16038;47.692;9.400;2024-02-26T06:24:03;94796.34;;;5.12;100.00
28927;BME280;16038;47.692;9.400;2024-02-26T06:26:28;94797.59;;;5.29;100.00
28927;BME280;16038;47.692;9.400;2024-02-26T06:28:55;94803.03;;;5.29;100.00
28927;BME280;16038;47.692;9.400;2024-02-26T06:31:21;94805.34;;;5.27;100.00
28927;BME280;16038;47.692;9.400;2024-02-26T06:33:48;94813.50;;;5.27;100.00
28927;BME280;16038;47.692;9.400;2024-02-26T06:36:13;94820.38;;;5.14;100.00
28927;BME280;16038;47.692;9.400;2024-02-26T06:38:39;94824.22;;;5.09;100.00
28927;BME280;16038;47.692;9.400;2024-02-26T06:41:04;94825.38;;;5.05;100.00
28927;BME280;16038;47.692;9.400;2024-02-26T06:43:29;94827.75;;;5.10;100.00
28927;BME280;16038;47.692;9.400;2024-02-26T06:45:55;94834.41;;;5.23;100.00
28927;BME280;16038;47.692;9.400;2024-02-26T06:48:22;94836.72;;;5.21;100.00
28927;BME280;16038;47.692;9.400;2024-02-26T06:50:47;94842.38;;;4.98;100.00
28927;BME280;16038;47.692;9.400;2024-02-26T06:53:13;94846.03;;;4.72;100.00
28927;BME280;16038;47.692;9.400;2024-02-26T06:55:38;94839.84;;;4.75;100.00
28927;BME280;16038;47.692;9.400;2024-02-26T06:58:06;94834.03;;;4.73;100.00
28927;BME280;16038;47.692;9.400;2024-02-26T07:00:31;94826.81;;;4.47;100.00
28927;BME280;16038;47.692;9.400;2024-02-26T07:02:56;94839.28;;;4.17;100.00
28927;BME280;16038;47.692;9.400;2024-02-26T07:05:22;94845.13;;;4.23;100.00
28927;BME280;16038;47.692;9.400;2024-02-26T07:07:47;94849.72;;;4.15;100.00
28927;BME280;16038;47.692;9.400;2024-02-26T07:10:12;94849.84;;;4.26;100.00
28927;BME280;16038;47.692;9.400;2024-02-26T07:12:38;94854.97;;;4.35;100.00
28927;BME280;16038;47.692;9.400;2024-02-26T07:15:04;94856.06;;;5.16;100.00
28927;BME280;16038;47.692;9.400;2024-02-26T07:17:32;94861.75;;;6.32;100.00
28927;BME280;16038;47.692;9.400;2024-02-26T07:19:59;94852.91;;;6.72;100.00
28927;BME280;16038;47.692;9.400;2024-02-26T07:22:24;94851.72;;;6.62;100.00
28927;BME280;16038;47.692;9.400;2024-02-26T07:24:50;94848.53;;;6.24;100.00
28927;BME280;16038;47.692;9.400;2024-02-26T07:27:16;94843.97;;;6.78;100.00
28927;BME280;16038;47.692;9.400;2024-02-26T07:29:43;94847.09;;;7.13;100.00
28927;BME280;16038;47.692;9.400;2024-02-26T07:32:08;94847.47;;;7.33;100.00
28927;BME280;16038;47.692;9.400;2024-02-26T07:34:33;94842.03;;;7.04;99.06
28927;BME280;16038;47.692;9.400;2024-02-26T07:36:59;94856.06;;;7.24;94.50
28927;BME280;16038;47.692;9.400;2024-02-26T07:39:24;94848.91;;;8.02;93.86
28927;BME280;16038;47.692;9.400;2024-02-26T07:41:50;94841.28;;;7.18;92.60
28927;BME280;16038;47.692;9.400;2024-02-26T07:44:18;94830.25;;;6.21;100.00
28927;BME280;16038;47.692;9.400;2024-02-26T07:46:43;94839.59;;;6.23;100.00
28927;BME280;16038;47.692;9.400;2024-02-26T07:49:09;94838.03;;;6.22;100.00
28927;BME280;16038;47.692;9.400;2024-02-26T07:51:34;94841.28;;;6.96;98.68
28927;BME280;16038;47.692;9.400;2024-02-26T07:54:00;94848.97;;;7.70;95.40
28927;BME280;16038;47.692;9.400;2024-02-26T07:56:25;94850.25;;;8.50;83.21
28927;BME280;16038;47.692;9.400;2024-02-26T07:58:51;94859.97;;;8.58;81.11
28927;BME280;16038;47.692;9.400;2024-02-26T08:01:16;94857.94;;;7.59;85.93
28927;BME280;16038;47.692;9.400;2024-02-26T08:03:42;94845.53;;;6.79;94.14
28927;BME280;16038;47.692;9.400;2024-02-26T08:06:08;94856.41;;;6.76;93.71
28927;BME280;16038;47.692;9.400;2024-02-26T08:08:33;94854.88;;;6.85;97.55
28927;BME280;16038;47.692;9.400;2024-02-26T08:10:59;94854.88;;;7.18;96.41
28927;BME280;16038;47.692;9.400;2024-02-26T08:13:25;94854.13;;;7.03;96.44
28927;BME280;16038;47.692;9.400;2024-02-26T08:15:51;94841.63;;;6.73;99.50
28927;BME280;16038;47.692;9.400;2024-02-26T08:18:17;94826.84;;;6.49;100.00
28927;BME280;16038;47.692;9.400;2024-02-26T08:20:42;94837.00;;;6.81;98.04
28927;BME280;16038;47.692;9.400;2024-02-26T08:23:07;94837.41;;;7.15;96.14
28927;BME280;16038;47.692;9.400;2024-02-26T08:25:33;94836.59;;;7.33;94.77
28927;BME280;16038;47.692;9.400;2024-02-26T08:27:58;94842.03;;;6.86;98.00
28927;BME280;16038;47.692;9.400;2024-02-26T08:30:24;94843.22;;;6.99;96.25
28927;BME280;16038;47.692;9.400;2024-02-26T08:32:49;94840.06;;;7.55;93.91
28927;BME280;16038;47.692;9.400;2024-02-26T08:35:15;94844.59;;;8.04;92.98
28927;BME280;16038;47.692;9.400;2024-02-26T08:37:44;94837.59;;;8.00;90.24
28927;BME280;16038;47.692;9.400;2024-02-26T08:40:10;94839.31;;;7.18;94.21
28927;BME280;16038;47.692;9.400;2024-02-26T08:42:35;94840.09;;;7.26;95.83
28927;BME280;16038;47.692;9.400;2024-02-26T08:45:02;94839.31;;;7.36;93.87
28927;BME280;16038;47.692;9.400;2024-02-26T08:47:27;94845.47;;;7.76;93.66
28927;BME280;16038;47.692;9.400;2024-02-26T08:49:53;94850.59;;;7.56;92.17
28927;BME280;16038;47.692;9.400;2024-02-26T08:52:18;94846.25;;;7.77;90.66
28927;BME280;16038;47.692;9.400;2024-02-26T08:54:44;94837.72;;;7.60;90.73
28927;BME280;16038;47.692;9.400;2024-02-26T08:57:09;94839.31;;;7.36;91.97
28927;BME280;16038;47.692;9.400;2024-02-26T08:59:35;94836.16;;;7.63;93.36
28927;BME280;16038;47.692;9.400;2024-02-26T09:02:00;94834.50;;;7.98;92.59
28927;BME280;16038;47.692;9.400;2024-02-26T09:04:25;94841.19;;;8.71;87.59
28927;BME280;16038;47.692;9.400;2024-02-26T09:06:52;94846.97;;;7.88;88.09
28927;BME280;16038;47.692;9.400;2024-02-26T09:09:19;94842.22;;;8.14;89.56
28927;BME280;16038;47.692;9.400;2024-02-26T09:11:45;94844.63;;;7.97;87.96
28927;BME280;16038;47.692;9.400;2024-02-26T09:14:10;94854.63;;;8.29;88.28
28927;BME280;16038;47.692;9.400;2024-02-26T09:16:35;94857.53;;;8.74;85.09
28927;BME280;16038;47.692;9.400;2024-02-26T09:19:01;94857.50;;;9.75;81.11
28927;BME280;16038;47.692;9.400;2024-02-26T09:21:28;94864.31;;;11.18;70.95
28927;BME280;16038;47.692;9.400;2024-02-26T09:23:53;94864.13;;;11.05;70.12
28927;BME280;16038;47.692;9.400;2024-02-26T09:26:19;94874.59;;;11.37;67.53
28927;BME280;16038;47.692;9.400;2024-02-26T09:28:45;94868.16;;;11.71;66.36
28927;BME280;16038;47.692;9.400;2024-02-26T09:31:10;94877.56;;;11.23;65.12
28927;BME280;16038;47.692;9.400;2024-02-26T09:33:36;94865.81;;;11.22;66.20
28927;BME280;16038;47.692;9.400;2024-02-26T09:36:02;94862.06;;;10.85;68.12
28927;BME280;16038;47.692;9.400;2024-02-26T09:38:28;94865.78;;;10.71;66.07
28927;BME280;16038;47.692;9.400;2024-02-26T09:40:56;94862.22;;;10.75;66.62
28927;BME280;16038;47.692;9.400;2024-02-26T09:43:22;94863.34;;;10.50;68.30
28927;BME280;16038;47.692;9.400;2024-02-26T09:45:52;94865.59;;;10.21;69.90
28927;BME280;16038;47.692;9.400;2024-02-26T09:48:18;94874.59;;;10.21;68.90
28927;BME280;16038;47.692;9.400;2024-02-26T09:50:45;94873.91;;;9.75;68.66
28927;BME280;16038;47.692;9.400;2024-02-26T09:53:11;94887.94;;;9.77;71.40
28927;BME280;16038;47.692;9.400;2024-02-26T09:55:37;94891.59;;;10.40;68.26
28927;BME280;16038;47.692;9.400;2024-02-26T09:58:05;94886.03;;;9.74;69.84
28927;BME280;16038;47.692;9.400;2024-02-26T10:00:31;94882.22;;;9.61;72.76
28927;BME280;16038;47.692;9.400;2024-02-26T10:03:04;94883.59;;;9.42;74.32
28927;BME280;16038;47.692;9.400;2024-02-26T10:05:32;94873.91;;;9.75;75.13
28927;BME280;16038;47.692;9.400;2024-02-26T10:07:59;94876.94;;;10.23;73.99
28927;BME280;16038;47.692;9.400;2024-02-26T10:10:28;94873.47;;;9.81;71.64
28927;BME280;16038;47.692;9.400;2024-02-26T10:12:54;94880.28;;;9.62;73.59
28927;BME280;16038;47.692;9.400;2024-02-26T10:15:19;94876.94;;;9.40;76.03
28927;BME280;16038;47.692;9.400;2024-02-26T10:17:45;94870.75;;;9.35;77.31
28927;BME280;16038;47.692;9.400;2024-02-26T10:20:17;94870.56;;;9.57;75.29
28927;BME280;16038;47.692;9.400;2024-02-26T10:22:46;94873.47;;;9.35;77.96
28927;BME280;16038;47.692;9.400;2024-02-26T10:25:11;94867.94;;;9.46;79.29
28927;BME280;16038;47.692;9.400;2024-02-26T10:27:37;94870.81;;;9.70;77.83
28927;BME280;16038;47.692;9.400;2024-02-26T10:30:19;94872.34;;;9.74;75.57
28927;BME280;16038;47.692;9.400;2024-02-26T10:32:45;94883.03;;;10.00;73.89
28927;BME280;16038;47.692;9.400;2024-02-26T10:35:13;94883.91;;;9.89;71.63
28927;BME280;16038;47.692;9.400;2024-02-26T10:37:40;94888.19;;;10.32;72.67
28927;BME280;16038;47.692;9.400;2024-02-26T10:40:06;94886.50;;;10.42;72.00
28927;BME280;16038;47.692;9.400;2024-02-26T10:42:34;94893.19;;;10.99;76.66
28927;BME280;16038;47.692;9.400;2024-02-26T10:45:00;94885.53;;;10.86;81.30
28927;BME280;16038;47.692;9.400;2024-02-26T10:47:29;94892.31;;;10.75;82.73
28927;BME280;16038;47.692;9.400;2024-02-26T10:49:55;94895.09;;;10.40;82.35
28927;BME280;16038;47.692;9.400;2024-02-26T10:52:22;94901.88;;;10.28;82.98
28927;BME280;16038;47.692;9.400;2024-02-26T10:54:53;94895.66;;;10.24;83.73
28927;BME280;16038;47.692;9.400;2024-02-26T10:57:21;94885.69;;;10.07;84.63
28927;BME280;16038;47.692;9.400;2024-02-26T10:59:48;94897.63;;;10.24;83.79
28927;BME280;16038;47.692;9.400;2024-02-26T11:02:14;94887.34;;;9.97;84.94
28927;BME280;16038;47.692;9.400;2024-02-26T11:04:40;94896.47;;;9.87;84.81
28927;BME280;16038;47.692;9.400;2024-02-26T11:07:08;94900.91;;;9.70;84.08
28927;BME280;16038;47.692;9.400;2024-02-26T11:09:34;94899.06;;;9.56;87.28
28927;BME280;16038;47.692;9.400;2024-02-26T11:12:02;94898.97;;;9.67;88.41
28927;BME280;16038;47.692;9.400;2024-02-26T11:14:29;94908.22;;;9.35;89.29
28927;BME280;16038;47.692;9.400;2024-02-26T11:16:56;94902.84;;;9.24;90.00
28927;BME280;16038;47.692;9.400;2024-02-26T11:19:24;94905.31;;;9.08;90.13
28927;BME280;16038;47.692;9.400;2024-02-26T11:21:50;94906.81;;;9.12;90.04
28927;BME280;16038;47.692;9.400;2024-02-26T11:24:15;94907.19;;;9.14;88.68
28927;BME280;16038;47.692;9.400;2024-02-26T11:26:50;94906.09;;;9.05;91.01
28927;BME280;16038;47.692;9.400;2024-02-26T11:29:22;94903.84;;;8.89;90.47
28927;BME280;16038;47.692;9.400;2024-02-26T11:31:48;94904.22;;;8.91;90.58
28927;BME280;16038;47.692;9.400;2024-02-26T11:34:14;94908.59;;;8.81;91.78
28927;BME280;16038;47.692;9.400;2024-02-26T11:36:40;94900.34;;;8.88;90.55
28927;BME280;16038;47.692;9.400;2024-02-26T11:39:06;94897.66;;;8.81;92.93
28927;BME280;16038;47.692;9.400;2024-02-26T11:41:31;94899.19;;;8.82;91.80
28927;BME280;16038;47.692;9.400;2024-02-26T11:43:58;94900.06;;;8.68;91.87
28927;BME280;16038;47.692;9.400;2024-02-26T11:48:55;94894.56;;;8.75;95.76
28927;BME280;16038;47.692;9.400;2024-02-26T11:51:25;94893.38;;;8.76;96.17
28927;BME280;16038;47.692;9.400;2024-02-26T11:53:51;94890.63;;;8.80;96.66
28927;BME280;16038;47.692;9.400;2024-02-26T11:59:04;94903.94;;;8.71;96.69
28927;BME280;16038;47.692;9.400;2024-02-26T12:01:47;94898.88;;;8.69;97.51
28927;BME280;16038;47.692;9.400;2024-02-26T12:04:19;94898.63;;;8.42;97.41
28927;BME280;16038;47.692;9.400;2024-02-26T12:06:53;94900.53;;;8.56;96.68
28927;BME280;16038;47.692;9.400;2024-02-26T12:11:57;94900.94;;;8.51;94.46
28927;BME280;16038;47.692;9.400;2024-02-26T12:14:25;94897.84;;;8.41;93.88
28927;BME280;16038;47.692;9.400;2024-02-26T12:16:51;94900.97;;;8.36;95.01
28927;BME280;16038;47.692;9.400;2024-02-26T12:19:18;94905.66;;;8.36;96.01
28927;BME280;16038;47.692;9.400;2024-02-26T12:21:43;94907.16;;;8.55;94.56
28927;BME280;16038;47.692;9.400;2024-02-26T12:24:14;94902.81;;;8.68;91.82
28927;BME280;16038;47.692;9.400;2024-02-26T12:26:41;94902.69;;;8.90;92.40
28927;BME280;16038;47.692;9.400;2024-02-26T12:29:07;94898.63;;;9.12;90.97
28927;BME280;16038;47.692;9.400;2024-02-26T12:31:33;94898.72;;;8.98;91.64
28927;BME280;16038;47.692;9.400;2024-02-26T12:34:00;94890.09;;;8.29;98.84
28927;BME280;16038;47.692;9.400;2024-02-26T12:36:25;94891.28;;;8.17;100.00
28927;BME280;16038;47.692;9.400;2024-02-26T12:38:51;94905.31;;;9.04;98.25
28927;BME280;16038;47.692;9.400;2024-02-26T12:41:17;94912.06;;;9.41;96.25
28927;BME280;16038;47.692;9.400;2024-02-26T12:43:42;94916.50;;;9.24;93.73
28927;BME280;16038;47.692;9.400;2024-02-26T12:46:08;94907.28;;;9.52;86.51
28927;BME280;16038;47.692;9.400;2024-02-26T12:48:33;94913.50;;;9.60;86.16
28927;BME280;16038;47.692;9.400;2024-02-26T12:50:59;94911.81;;;9.73;86.33
28927;BME280;16038;47.692;9.400;2024-02-26T12:53:26;94903.69;;;10.04;86.25
28927;BME280;16038;47.692;9.400;2024-02-26T12:55:54;94912.41;;;10.30;84.23
28927;BME280;16038;47.692;9.400;2024-02-26T12:58:20;94917.91;;;10.64;83.48
28927;BME280;16038;47.692;9.400;2024-02-26T13:00:50;94914.94;;;10.51;84.42
28927;BME280;16038;47.692;9.400;2024-02-26T13:03:16;94910.00;;;10.39;86.68
28927;BME280;16038;47.692;9.400;2024-02-26T13:05:42;94916.41;;;10.87;83.60
28927;BME280;16038;47.692;9.400;2024-02-26T13:08:07;94912.38;;;11.26;81.12
28927;BME280;16038;47.692;9.400;2024-02-26T13:10:33;94903.50;;;11.42;79.49